WetterOnline ( https://www.wetteronline.de )

Wetter aktuell Feuchtwangen

Aktuelles Wetter: Feuchtwangen-Heilbronn (475m)

6-stündlich | Neueste Meldungen
Ortszeit Temperatur Wetter
Mi, 28.09. 14:00 9.0° C bewölkt
Mi, 28.09. 8:00 7.2° C leichter Regen
Mi, 28.09. 2:00 5.9° C Sprühregen
Di, 27.09. 20:00 6.9° C bewölkt
Di, 27.09. 14:00 8.5° C Sprühregen
Di, 27.09. 8:00 7.8° C leichter Regen
Di, 27.09. 2:00 9.2° C leichter Regen
Mo, 26.09. 20:00 11.0° C Sprühregen
Ortszeit Temperatur Wetter
Mi, 28.09. 17:00 9.8° C leicht bewölkt
Mi, 28.09. 16:50 9.8° C leicht bewölkt
Mi, 28.09. 16:40 10.1° C bedeckt
Mi, 28.09. 16:30 9.6° C wolkig
Mi, 28.09. 16:20 9.6° C wolkig
Mi, 28.09. 16:10 9.6° C bewölkt
Mi, 28.09. 16:00 9.6° C bewölkt
Mi, 28.09. 15:30 9.9° C wolkig
Mi, 28.09. 15:00 9.4° C bewölkt
Mi, 28.09. 14:30 8.8° C bewölkt
Mi, 28.09. 14:00 9.0° C bewölkt
Ortszeit Relative Feuchte Sichtweite
Mi, 28.09. 14:00 86% >70 km
Mi, 28.09. 8:00 93% 35 km
Mi, 28.09. 2:00 93% 45 km
Di, 27.09. 20:00 87% 60 km
Di, 27.09. 14:00 88% 35 km
Di, 27.09. 8:00 91% 45 km
Di, 27.09. 2:00 87% 28 km
Mo, 26.09. 20:00 73% 50 km
Ortszeit Relative Feuchte Sichtweite
Mi, 28.09. 17:00 77% 55 km
Mi, 28.09. 16:50 77% -
Mi, 28.09. 16:40 77% -
Mi, 28.09. 16:30 77% 55 km
Mi, 28.09. 16:20 77% -
Mi, 28.09. 16:10 78% -
Mi, 28.09. 16:00 77% 45 km
Mi, 28.09. 15:30 77% 65 km
Mi, 28.09. 15:00 80% 55 km
Mi, 28.09. 14:30 84% 60 km
Mi, 28.09. 14:00 86% >70 km
Ortszeit Niederschlagsmenge Niederschlagsart
Mi, 28.09. 14:00 1 l/m2 in 6 Std. Regen
Mi, 28.09. 8:00 5 l/m2 in 12 Std. Regen
Mi, 28.09. 2:00 0.1 l/m2 in 6 Std. Regen
Di, 27.09. 20:00 3 l/m2 in 12 Std. Regen
Di, 27.09. 14:00 1 l/m2 in 6 Std. Regen
Di, 27.09. 8:00 5 l/m2 in 12 Std. Regen
Di, 27.09. 2:00 0.3 l/m2 in 6 Std. Regen
Mo, 26.09. 20:00 0.1 l/m2 in 12 Std. Regen
Ortszeit Niederschlagsmenge Niederschlagsart
Mi, 28.09. 17:00 0.0 l/m2 in 1 Std. Regen
Mi, 28.09. 16:50 keine Meldung -
Mi, 28.09. 16:40 keine Meldung -
Mi, 28.09. 16:30 0.0 l/m2 in 1 Std. -
Mi, 28.09. 16:20 keine Meldung -
Mi, 28.09. 16:10 keine Meldung -
Mi, 28.09. 16:00 0.0 l/m2 in 1 Std. -
Mi, 28.09. 15:30 0.0 l/m2 in 1 Std. -
Mi, 28.09. 15:00 <0.05 l/m2 in 1 Std. Regen
Mi, 28.09. 14:30 <0.05 l/m2 in 1 Std. Schneeregen
Mi, 28.09. 14:00 0.4 l/m2 in 1 Std. Regen
Ortszeit Stärke Spitze Richtung
km/h Bft. km/h Grad Sektor
Mi, 28.09. 14:00 11 2 29 250° W
Mi, 28.09. 8:00 17 3 31 260° W
Mi, 28.09. 2:00 7 2 32 150° SO
Di, 27.09. 20:00 11 2 47 250° W
Di, 27.09. 14:00 18 3 47 250° W
Di, 27.09. 8:00 22 4 40 260° W
Di, 27.09. 2:00 20 4 43 230° SW
Mo, 26.09. 20:00 13 3 33 210° SW
Ortszeit Stärke Spitze Richtung
km/h Bft. km/h Grad Sektor
Mi, 28.09. 17:00 11 2 26 260° W
Mi, 28.09. 16:50 11 2 - 260° W
Mi, 28.09. 16:40 13 3 - 260° W
Mi, 28.09. 16:30 13 3 26 240° SW
Mi, 28.09. 16:20 13 3 - 240° SW
Mi, 28.09. 16:10 11 2 - 260° W
Mi, 28.09. 16:00 13 3 28 270° W
Mi, 28.09. 15:30 13 3 28 260° W
Mi, 28.09. 15:00 15 3 30 260° W
Mi, 28.09. 14:30 17 3 30 250° W
Mi, 28.09. 14:00 11 2 25 250° W
Ortszeit Untergrenze Bedeckung Gattung
total tief tief mittel hoch
Mi, 28.09. 14:00 1050 m 7/8 6/8 - - -
Mi, 28.09. 8:00 330 m 8/8 8/8 - - -
Mi, 28.09. 2:00 1080 m 8/8 8/8 - - -
Di, 27.09. 20:00 840 m 7/8 6/8 - - -
Di, 27.09. 14:00 600 m 7/8 7/8 - - -
Di, 27.09. 8:00 420 m 8/8 8/8 - - -
Di, 27.09. 2:00 510 m 8/8 1/8 - - -
Mo, 26.09. 20:00 1500 m 7/8 7/8 - - -
Ortszeit Bedeckungsgrad in Achtel und Wolkenuntergrenze
Mi, 28.09. 17:00 1(1500m) 6(7800m) 6(9000m)
Mi, 28.09. 16:50 1(1500m) 6(7800m) 6(9000m)
Mi, 28.09. 16:40 8
Mi, 28.09. 16:30 1(540m) 3(1080m) 7(7200m)
Mi, 28.09. 16:20 1(540m) 3(1080m) 7(7200m)
Mi, 28.09. 16:10 7
Mi, 28.09. 16:00 2(630m) 7(1500m) 8(6900m)
Mi, 28.09. 15:30 1(570m) 7(6900m)
Mi, 28.09. 15:00 7(1500m) 7(6900m) 7(7800m)
Mi, 28.09. 14:30 2(1170m) 5(1500m) 8(6600m)
Mi, 28.09. 14:00 1(1050m) 6(1500m) 7(6600m)
Ortszeit Luftdruck NN (hPa) Tendenz (hPa in 3 Std.)
Mi, 28.09. 14:00 999 + 0,9
Mi, 28.09. 8:00 997 - 0,8
Mi, 28.09. 2:00 1002 - 1,4
Di, 27.09. 20:00 1002 + 0,2
Di, 27.09. 14:00 1002 + 0,5
Di, 27.09. 8:00 999 + 1,0
Di, 27.09. 2:00 1000 - 2,3
Mo, 26.09. 20:00 1004 - 1,0
Ortszeit Luftdruck NN (hPa) Tendenz (hPa in 3 Std.)
Mi, 28.09. 17:00 1000 + 0,5
Mi, 28.09. 16:50 1000 keine Meldung
Mi, 28.09. 16:40 1000 keine Meldung
Mi, 28.09. 16:30 999 + 0,3
Mi, 28.09. 16:20 999 keine Meldung
Mi, 28.09. 16:10 999 keine Meldung
Mi, 28.09. 16:00 1000 + 0,3
Mi, 28.09. 15:30 999 + 0,3
Mi, 28.09. 15:00 999 + 0,5
Mi, 28.09. 14:30 999 + 0,7
Mi, 28.09. 14:00 999 + 0,9
Ortszeit Schneehöhe (cm)
Mi, 28.09. 14:00 0
Mi, 28.09. 8:00 0
Mi, 28.09. 2:00 0
Di, 27.09. 20:00 0
Di, 27.09. 14:00 0
Di, 27.09. 8:00 0
Di, 27.09. 2:00 0
Mo, 26.09. 20:00 0
Ortszeit Schneehöhe (cm)
Mi, 28.09. 17:00 0
Mi, 28.09. 16:50 0
Mi, 28.09. 16:40 0
Mi, 28.09. 16:30 0
Mi, 28.09. 16:20 0
Mi, 28.09. 16:10 0
Mi, 28.09. 16:00 0
Mi, 28.09. 15:30 0
Mi, 28.09. 15:00 0
Mi, 28.09. 14:30 0
Mi, 28.09. 14:00 0
Link zu dieser Seite / Seite empfehlen

Das Wetter in ...